createdAt,value
2023-11-30T00:00:01.247Z,-0.70
2023-11-30T00:02:04.432Z,-0.70
2023-11-30T00:04:08.841Z,-0.70
2023-11-30T00:06:11.456Z,-0.70
2023-11-30T00:08:14.750Z,-0.70
2023-11-30T00:10:20.662Z,-0.80
2023-11-30T00:12:24.292Z,-0.80
2023-11-30T00:14:26.866Z,-0.80
2023-11-30T00:16:29.592Z,-0.80
2023-11-30T00:18:32.239Z,-0.80
2023-11-30T00:20:34.853Z,-0.80
2023-11-30T00:22:37.471Z,-0.80
2023-11-30T00:24:40.283Z,-0.80
2023-11-30T00:26:45.708Z,-0.80
2023-11-30T00:28:48.287Z,-0.80
2023-11-30T00:30:51.693Z,-0.80
2023-11-30T00:32:55.220Z,-0.80
2023-11-30T00:34:57.892Z,-0.80
2023-11-30T00:37:00.417Z,-0.90
2023-11-30T00:39:02.955Z,-0.80
2023-11-30T00:41:06.140Z,-0.80
2023-11-30T00:43:11.477Z,-0.80
2023-11-30T00:45:14.222Z,-0.80
2023-11-30T00:47:20.811Z,-0.90
2023-11-30T00:49:23.842Z,-0.80
2023-11-30T00:51:27.929Z,-0.80
2023-11-30T00:53:30.492Z,0.30
2023-11-30T00:55:33.093Z,-0.90
2023-11-30T00:57:35.685Z,-0.90
2023-11-30T00:59:40.872Z,-0.90
2023-11-30T01:01:43.682Z,-0.70
2023-11-30T01:03:46.609Z,0.00
2023-11-30T01:05:49.252Z,-1.00
2023-11-30T01:07:51.817Z,-1.00
2023-11-30T01:09:54.401Z,-0.10
2023-11-30T01:11:58.008Z,-1.00
2023-11-30T01:14:00.704Z,-1.00
2023-11-30T01:16:06.989Z,-1.00
2023-11-30T01:18:10.249Z,-1.00
2023-11-30T01:20:12.941Z,-1.00
2023-11-30T01:22:15.788Z,-1.00
2023-11-30T01:24:18.398Z,-1.00
2023-11-30T01:26:21.097Z,-1.10
2023-11-30T01:28:23.524Z,-1.10
2023-11-30T01:30:26.217Z,-1.00
2023-11-30T01:32:31.812Z,-1.00
2023-11-30T01:34:36.267Z,0.40
2023-11-30T01:36:38.765Z,-1.00
2023-11-30T01:38:41.402Z,-1.00
2023-11-30T01:40:43.908Z,-1.00
2023-11-30T01:42:46.471Z,-1.00
2023-11-30T01:44:49.041Z,-1.00
2023-11-30T01:46:51.749Z,-1.00
2023-11-30T01:48:57.296Z,-1.00
2023-11-30T01:51:00.504Z,-1.00
2023-11-30T01:53:03.789Z,-1.00
2023-11-30T01:55:08.151Z,-1.00
2023-11-30T01:57:10.758Z,-1.00
2023-11-30T01:59:14.333Z,-1.00
2023-11-30T02:01:17.276Z,-1.00
2023-11-30T02:03:21.438Z,-1.00
2023-11-30T02:05:28.776Z,-1.00
2023-11-30T02:07:31.442Z,-1.00
2023-11-30T02:09:34.177Z,-1.00
2023-11-30T02:11:37.017Z,-1.00
2023-11-30T02:13:40.512Z,-1.10
2023-11-30T02:15:43.016Z,-1.10
2023-11-30T02:17:46.486Z,-1.10
2023-11-30T02:19:49.061Z,-1.10
2023-11-30T02:21:54.404Z,-1.10
2023-11-30T02:23:56.953Z,-1.10
2023-11-30T02:25:59.623Z,-1.20
2023-11-30T02:28:02.183Z,-1.20
2023-11-30T02:30:05.851Z,-1.20
2023-11-30T02:32:08.629Z,-1.30
2023-11-30T02:34:12.242Z,-1.30
2023-11-30T02:36:15.065Z,-1.30
2023-11-30T02:38:20.228Z,-1.30
2023-11-30T02:40:22.762Z,0.20
2023-11-30T02:42:25.242Z,-1.30
2023-11-30T02:44:27.886Z,-1.30
2023-11-30T02:46:31.060Z,-1.20
2023-11-30T02:48:33.565Z,-1.30
2023-11-30T02:50:36.254Z,-1.30
2023-11-30T02:52:38.747Z,-1.30
2023-11-30T02:54:44.156Z,-1.30
2023-11-30T02:56:46.751Z,-1.30
2023-11-30T02:58:49.485Z,-1.30
2023-11-30T03:00:51.981Z,-1.40
2023-11-30T03:02:54.536Z,-1.40
2023-11-30T03:04:57.065Z,-1.40
2023-11-30T03:06:59.814Z,-1.50
2023-11-30T03:09:02.261Z,-1.50
2023-11-30T03:11:07.761Z,-1.60
2023-11-30T03:13:12.391Z,-1.60
2023-11-30T03:15:19.650Z,-1.60
2023-11-30T03:17:22.232Z,-1.60
2023-11-30T03:19:27.930Z,-1.60
2023-11-30T03:21:30.985Z,-1.60
2023-11-30T03:23:35.148Z,-1.60
2023-11-30T03:25:38.120Z,-1.60
2023-11-30T03:27:43.296Z,-1.60
2023-11-30T03:29:45.784Z,-1.60
2023-11-30T03:31:48.332Z,-1.60
2023-11-30T03:33:50.947Z,-1.60
2023-11-30T03:35:53.552Z,-1.60
2023-11-30T03:37:56.073Z,-1.60
2023-11-30T03:39:58.599Z,-1.70
2023-11-30T03:42:01.145Z,-1.70
2023-11-30T03:44:06.373Z,-1.70
2023-11-30T03:46:09.118Z,-1.70
2023-11-30T03:48:11.652Z,-1.70
2023-11-30T03:50:14.433Z,-1.70
2023-11-30T03:52:16.903Z,-1.70
2023-11-30T03:54:19.541Z,-1.80
2023-11-30T03:56:23.399Z,-1.70
2023-11-30T03:58:25.951Z,-0.90
2023-11-30T04:00:31.221Z,-1.80
2023-11-30T04:02:33.980Z,-1.80
2023-11-30T04:04:39.413Z,-1.80
2023-11-30T04:06:42.053Z,-1.80
2023-11-30T04:08:44.531Z,-1.80
2023-11-30T04:10:47.391Z,-1.80
2023-11-30T04:12:49.896Z,-1.80
2023-11-30T04:14:52.673Z,-1.80
2023-11-30T04:17:00.774Z,-1.80
2023-11-30T04:19:04.957Z,-1.70
2023-11-30T04:21:08.498Z,-1.80
2023-11-30T04:23:13.604Z,-1.80
2023-11-30T04:25:16.204Z,-1.80
2023-11-30T04:27:18.946Z,-1.80
2023-11-30T04:29:21.846Z,-0.60
2023-11-30T04:31:24.457Z,-1.90
2023-11-30T04:33:29.741Z,-1.90
2023-11-30T04:35:32.314Z,-1.90
2023-11-30T04:37:37.610Z,-2.00
2023-11-30T04:39:40.206Z,-2.00
2023-11-30T04:41:42.895Z,-2.00
2023-11-30T04:43:45.749Z,-2.00
2023-11-30T04:45:48.293Z,-2.00
2023-11-30T04:47:51.407Z,-2.00
2023-11-30T04:49:56.852Z,-2.00
2023-11-30T04:51:59.390Z,-2.00
2023-11-30T04:54:01.899Z,-2.10
2023-11-30T04:56:05.056Z,-2.10
2023-11-30T04:58:07.586Z,-2.10
2023-11-30T05:00:11.586Z,-2.10
2023-11-30T05:02:14.861Z,-2.20
2023-11-30T05:04:17.496Z,-2.20
2023-11-30T05:06:22.685Z,-2.20
2023-11-30T05:08:25.200Z,-2.20
2023-11-30T05:10:27.699Z,-2.20
2023-11-30T05:12:30.250Z,-2.20
2023-11-30T05:14:32.721Z,-2.20
2023-11-30T05:16:35.255Z,-2.20
2023-11-30T05:18:38.620Z,-2.30
2023-11-30T05:20:41.947Z,-2.30
2023-11-30T05:22:47.037Z,-2.30
2023-11-30T05:24:51.518Z,-2.30
2023-11-30T05:26:54.048Z,-2.40
2023-11-30T05:28:56.826Z,-2.40
2023-11-30T05:30:59.537Z,-2.40
2023-11-30T05:33:02.124Z,-2.50
2023-11-30T05:35:06.491Z,-2.50
2023-11-30T05:37:08.719Z,-2.50
2023-11-30T05:39:16.926Z,-2.80
2023-11-30T05:41:19.671Z,-2.60
2023-11-30T05:43:22.530Z,-2.60
2023-11-30T05:45:25.364Z,-2.70
2023-11-30T05:47:27.903Z,-2.70
2023-11-30T05:49:30.513Z,-2.70
2023-11-30T05:51:33.311Z,-2.70
2023-11-30T05:53:37.147Z,-2.70
2023-11-30T05:55:42.276Z,-2.70
2023-11-30T05:57:44.963Z,-2.70
2023-11-30T05:59:47.692Z,-2.70
2023-11-30T06:01:50.134Z,-2.70
2023-11-30T06:03:52.825Z,-2.70
2023-11-30T06:05:55.477Z,-2.90
2023-11-30T06:07:58.026Z,-2.80
2023-11-30T06:10:00.568Z,-2.70
2023-11-30T06:12:06.058Z,-2.80
2023-11-30T06:14:08.635Z,-2.80
2023-11-30T06:16:12.681Z,-0.80
2023-11-30T06:18:15.357Z,-2.40
2023-11-30T06:20:18.948Z,-2.80
2023-11-30T06:22:21.509Z,-2.80
2023-11-30T06:24:24.081Z,-2.90
2023-11-30T06:26:29.262Z,-3.00
2023-11-30T06:28:34.354Z,-3.00
2023-11-30T06:30:37.119Z,-2.90
2023-11-30T06:32:39.910Z,-2.90
2023-11-30T06:34:42.507Z,-3.80
2023-11-30T06:36:45.212Z,-2.80
2023-11-30T06:38:47.846Z,-2.90
2023-11-30T06:40:50.421Z,-2.80
2023-11-30T06:42:53.004Z,-2.80
2023-11-30T06:44:58.282Z,-2.80
2023-11-30T06:47:00.876Z,-2.90
2023-11-30T06:49:03.657Z,-3.00
2023-11-30T06:51:08.411Z,-2.90
2023-11-30T06:53:10.931Z,-2.80
2023-11-30T06:55:13.607Z,-2.90
2023-11-30T06:57:16.276Z,-2.80
2023-11-30T06:59:18.920Z,-1.20
2023-11-30T07:01:27.155Z,-2.80
2023-11-30T07:03:31.158Z,-2.90
2023-11-30T07:05:33.870Z,-2.90
2023-11-30T07:07:37.321Z,-2.90
2023-11-30T07:09:40.328Z,-2.90
2023-11-30T07:11:43.957Z,-2.80
2023-11-30T07:13:46.635Z,-2.80
2023-11-30T07:15:49.479Z,-2.90
2023-11-30T07:17:54.720Z,-2.90
2023-11-30T07:19:57.231Z,-2.40
2023-11-30T07:22:00.573Z,-2.90
2023-11-30T07:24:03.275Z,-2.90
2023-11-30T07:26:11.378Z,-2.80
2023-11-30T07:28:13.966Z,-2.80
2023-11-30T07:30:17.133Z,-3.00
2023-11-30T07:32:19.900Z,-2.80
2023-11-30T07:34:25.393Z,-2.80
2023-11-30T07:36:27.932Z,-2.70
2023-11-30T07:38:30.913Z,-2.60
2023-11-30T07:40:33.792Z,-2.60
2023-11-30T07:42:37.853Z,-2.60
2023-11-30T07:44:40.376Z,-2.60
2023-11-30T07:46:42.930Z,-2.60
2023-11-30T07:48:48.461Z,-2.50
2023-11-30T07:50:54.578Z,-2.50
2023-11-30T07:52:57.192Z,-2.50
2023-11-30T07:54:59.754Z,-3.90
2023-11-30T07:57:02.440Z,-2.50
2023-11-30T07:59:04.976Z,-2.40
2023-11-30T08:01:08.181Z,-2.50
2023-11-30T08:03:11.724Z,-2.50
2023-11-30T08:05:14.521Z,-2.40
2023-11-30T08:07:20.969Z,-0.60
2023-11-30T08:09:24.867Z,-2.30
2023-11-30T08:11:27.725Z,-2.30
2023-11-30T08:13:31.177Z,-2.20
2023-11-30T08:15:33.763Z,-2.20
2023-11-30T08:17:36.231Z,-2.20
2023-11-30T08:19:38.740Z,-2.10
2023-11-30T08:21:42.633Z,-2.00
2023-11-30T08:23:49.200Z,-2.00
2023-11-30T08:25:57.921Z,-1.90
2023-11-30T08:28:00.602Z,-1.90
2023-11-30T08:30:03.405Z,-1.90
2023-11-30T08:32:07.089Z,-1.80
2023-11-30T08:34:09.847Z,-1.80
2023-11-30T08:36:12.852Z,-1.80
2023-11-30T08:38:18.132Z,-1.70
2023-11-30T08:40:23.602Z,-1.70
2023-11-30T08:42:27.316Z,-1.70
2023-11-30T08:44:30.005Z,-1.70
2023-11-30T08:46:32.664Z,-1.70
2023-11-30T08:48:35.231Z,-1.60
2023-11-30T08:50:37.808Z,-1.80
2023-11-30T08:52:40.384Z,-1.50
2023-11-30T08:54:43.140Z,-1.50
2023-11-30T08:56:48.345Z,-1.50
2023-11-30T08:58:51.603Z,-1.40
2023-11-30T09:00:54.129Z,-1.30
2023-11-30T09:02:57.880Z,-1.30
2023-11-30T09:05:00.416Z,-1.30
2023-11-30T09:07:03.059Z,-1.20
2023-11-30T09:09:08.322Z,-1.10
2023-11-30T09:11:10.878Z,-1.10
2023-11-30T09:13:15.960Z,-1.00
2023-11-30T09:15:20.069Z,-0.90
2023-11-30T09:17:23.325Z,-0.80
2023-11-30T09:19:26.088Z,-0.80
2023-11-30T09:21:28.708Z,-0.60
2023-11-30T09:23:31.246Z,-0.50
2023-11-30T09:25:34.773Z,-0.50
2023-11-30T09:27:37.538Z,-0.40
2023-11-30T09:29:42.651Z,-0.40
2023-11-30T09:31:45.318Z,0.80
2023-11-30T09:33:48.186Z,-0.30
2023-11-30T09:35:50.741Z,-0.30
2023-11-30T09:37:53.891Z,-0.30
2023-11-30T09:39:56.534Z,-0.30
2023-11-30T09:42:01.413Z,-0.50
2023-11-30T09:44:04.801Z,-0.30
2023-11-30T09:46:10.963Z,-0.40
2023-11-30T09:48:14.486Z,-0.30
2023-11-30T09:50:17.145Z,-0.30
2023-11-30T09:52:22.992Z,-0.40
2023-11-30T09:54:26.387Z,-0.10
2023-11-30T09:56:32.398Z,-0.20
2023-11-30T09:58:35.013Z,0.00
2023-11-30T10:00:37.800Z,0.00
2023-11-30T10:02:51.463Z,-1.30
2023-11-30T10:04:54.123Z,0.00
2023-11-30T10:06:57.764Z,0.00
2023-11-30T10:09:03.372Z,-0.10
2023-11-30T10:11:09.218Z,-0.10
2023-11-30T10:13:11.888Z,0.00
2023-11-30T10:15:14.530Z,0.10
2023-11-30T10:17:17.670Z,0.10
2023-11-30T10:19:25.032Z,0.10
2023-11-30T10:21:27.826Z,0.20
2023-11-30T10:23:31.407Z,0.20
2023-11-30T10:25:34.384Z,0.50
2023-11-30T10:27:38.009Z,1.10
2023-11-30T10:29:43.507Z,0.20
2023-11-30T10:31:49.008Z,0.50
2023-11-30T10:33:56.951Z,0.40
2023-11-30T10:36:06.042Z,0.40
2023-11-30T10:38:10.418Z,0.40
2023-11-30T10:40:13.612Z,0.50
2023-11-30T10:42:18.351Z,0.50
2023-11-30T10:44:28.933Z,0.40
2023-11-30T10:46:34.743Z,0.40
2023-11-30T10:48:39.638Z,0.40
2023-11-30T10:50:42.200Z,0.40
2023-11-30T10:52:49.592Z,0.30
2023-11-30T10:55:02.134Z,0.30
2023-11-30T10:57:05.567Z,0.30
2023-11-30T10:59:13.359Z,0.30
2023-11-30T11:01:16.018Z,0.30
2023-11-30T11:03:21.419Z,0.30
2023-11-30T11:05:24.127Z,0.30
2023-11-30T11:07:27.672Z,0.30
2023-11-30T11:09:43.702Z,2.00
2023-11-30T11:11:50.973Z,0.30
2023-11-30T11:13:53.684Z,0.90
2023-11-30T11:16:02.202Z,0.40
2023-11-30T11:18:05.328Z,0.40
2023-11-30T11:20:10.764Z,1.70
2023-11-30T11:22:17.613Z,0.40
2023-11-30T11:24:24.112Z,0.40
2023-11-30T11:26:30.163Z,0.40
2023-11-30T11:28:33.003Z,0.50
2023-11-30T11:30:42.821Z,0.50
2023-11-30T11:32:46.516Z,0.60
2023-11-30T11:34:49.063Z,0.60
2023-11-30T11:36:51.594Z,0.70
2023-11-30T11:38:54.146Z,0.70
2023-11-30T11:40:56.680Z,0.70
2023-11-30T11:43:01.777Z,0.70
2023-11-30T11:45:05.845Z,0.70
2023-11-30T11:47:08.659Z,0.70
2023-11-30T11:49:11.136Z,0.70
2023-11-30T11:51:15.355Z,0.80
2023-11-30T11:53:18.009Z,2.20
2023-11-30T11:55:25.003Z,1.90
2023-11-30T11:57:32.800Z,0.70
2023-11-30T11:59:37.975Z,0.70
2023-11-30T12:01:40.984Z,0.70
2023-11-30T12:03:48.037Z,0.70
2023-11-30T12:05:50.853Z,0.70
2023-11-30T12:07:54.956Z,0.80
2023-11-30T12:09:58.759Z,0.80
2023-11-30T12:12:01.286Z,0.80
2023-11-30T12:14:03.838Z,0.80
2023-11-30T12:16:10.424Z,0.80
2023-11-30T12:18:13.181Z,0.90
2023-11-30T12:20:19.198Z,0.90
2023-11-30T12:22:22.269Z,0.90
2023-11-30T12:24:24.864Z,0.90
2023-11-30T12:26:28.182Z,0.90
2023-11-30T12:28:30.653Z,0.90
2023-11-30T12:30:34.108Z,1.00
2023-11-30T12:32:39.504Z,1.00
2023-11-30T12:34:42.097Z,1.00
2023-11-30T12:36:44.770Z,1.00
2023-11-30T12:38:47.526Z,1.00
2023-11-30T12:40:50.126Z,1.00
2023-11-30T12:42:52.646Z,1.00
2023-11-30T12:44:55.196Z,1.00
2023-11-30T12:46:57.777Z,1.00
2023-11-30T12:49:03.265Z,1.00
2023-11-30T12:51:06.254Z,0.90
2023-11-30T12:53:08.823Z,1.00
2023-11-30T12:55:11.447Z,0.90
2023-11-30T12:57:17.660Z,1.00
2023-11-30T12:59:22.533Z,1.00
2023-11-30T13:01:25.576Z,1.00
2023-11-30T13:03:28.289Z,1.00
2023-11-30T13:05:33.567Z,1.00
2023-11-30T13:07:36.197Z,1.00
2023-11-30T13:09:38.981Z,1.00
2023-11-30T13:11:41.536Z,1.10
2023-11-30T13:13:47.734Z,1.00
2023-11-30T13:15:50.573Z,1.00
2023-11-30T13:17:53.178Z,1.00
2023-11-30T13:19:55.763Z,1.00
2023-11-30T13:22:01.172Z,1.10
2023-11-30T13:24:04.762Z,1.10
2023-11-30T13:26:07.995Z,1.00
2023-11-30T13:28:11.360Z,1.00
2023-11-30T13:30:15.522Z,1.00
2023-11-30T13:32:18.189Z,1.80
2023-11-30T13:34:20.657Z,1.00
2023-11-30T13:36:23.317Z,1.00
2023-11-30T13:38:28.314Z,1.10
2023-11-30T13:40:32.105Z,1.00
2023-11-30T13:42:34.610Z,1.10
2023-11-30T13:44:44.369Z,0.90
2023-11-30T13:46:46.871Z,1.10
2023-11-30T13:48:54.600Z,1.10
2023-11-30T13:51:00.839Z,1.10
2023-11-30T13:53:04.883Z,1.10
2023-11-30T13:55:10.192Z,1.10
2023-11-30T13:57:12.823Z,0.90
2023-11-30T13:59:15.309Z,1.10
2023-11-30T14:01:18.000Z,1.10
2023-11-30T14:03:20.675Z,1.10
2023-11-30T14:05:23.907Z,1.00
2023-11-30T14:07:26.476Z,1.00
2023-11-30T14:09:29.081Z,1.00
2023-11-30T14:11:35.891Z,1.00
2023-11-30T14:13:38.498Z,1.00
2023-11-30T14:15:41.373Z,0.90
2023-11-30T14:17:46.818Z,1.00
2023-11-30T14:19:49.433Z,1.00
2023-11-30T14:21:56.957Z,1.90
2023-11-30T14:23:59.505Z,0.90
2023-11-30T14:26:02.131Z,2.50
2023-11-30T14:28:12.316Z,0.90
2023-11-30T14:30:16.718Z,0.90
2023-11-30T14:32:20.825Z,0.90
2023-11-30T14:34:23.231Z,0.90
2023-11-30T14:36:25.769Z,0.90
2023-11-30T14:38:28.289Z,0.90
2023-11-30T14:40:30.969Z,0.80
2023-11-30T14:42:33.585Z,0.80
2023-11-30T14:44:38.821Z,0.40
2023-11-30T14:46:42.436Z,0.70
2023-11-30T14:48:44.948Z,0.70
2023-11-30T14:50:47.667Z,0.70
2023-11-30T14:52:50.296Z,0.70
2023-11-30T14:54:54.622Z,0.70
2023-11-30T14:56:58.554Z,0.70
2023-11-30T14:59:01.266Z,0.70
2023-11-30T15:01:11.645Z,0.70
2023-11-30T15:03:14.246Z,0.80
2023-11-30T15:05:17.180Z,0.80
2023-11-30T15:07:19.825Z,0.80
2023-11-30T15:09:22.407Z,1.60
2023-11-30T15:11:24.960Z,0.80
2023-11-30T15:13:27.427Z,0.80
2023-11-30T15:15:29.873Z,0.90
2023-11-30T15:17:36.202Z,0.80
2023-11-30T15:19:38.754Z,0.90
2023-11-30T15:21:41.368Z,0.90
2023-11-30T15:23:43.848Z,0.90
2023-11-30T15:25:46.425Z,1.80
2023-11-30T15:27:50.457Z,0.90
2023-11-30T15:29:53.203Z,0.90
2023-11-30T15:31:57.587Z,0.90
2023-11-30T15:34:04.187Z,0.90
2023-11-30T15:36:07.941Z,0.90
2023-11-30T15:38:34.266Z,0.80
2023-11-30T15:40:37.632Z,0.90
2023-11-30T15:42:40.316Z,2.30
2023-11-30T15:44:43.165Z,0.80
2023-11-30T15:46:45.850Z,0.90
2023-11-30T15:48:48.443Z,0.90
2023-11-30T15:50:53.580Z,0.80
2023-11-30T15:52:56.062Z,0.80
2023-11-30T15:54:58.711Z,0.80
2023-11-30T15:57:01.292Z,0.80
2023-11-30T15:59:04.721Z,0.80
2023-11-30T16:01:11.296Z,0.80
2023-11-30T16:03:14.207Z,0.80
2023-11-30T16:05:17.172Z,0.80
2023-11-30T16:07:22.359Z,0.80
2023-11-30T16:09:24.997Z,0.80
2023-11-30T16:11:27.480Z,1.70
2023-11-30T16:13:30.368Z,0.80
2023-11-30T16:15:32.908Z,0.80
2023-11-30T16:17:35.533Z,0.80
2023-11-30T16:19:38.078Z,0.70
2023-11-30T16:21:40.576Z,0.70
2023-11-30T16:23:46.623Z,0.70
2023-11-30T16:26:01.106Z,0.70
2023-11-30T16:28:03.994Z,2.20
2023-11-30T16:30:08.635Z,0.70
2023-11-30T16:32:11.999Z,0.70
2023-11-30T16:34:14.684Z,0.70
2023-11-30T16:36:17.292Z,0.70
2023-11-30T16:38:19.795Z,0.70
2023-11-30T16:40:24.823Z,0.70
2023-11-30T16:42:27.426Z,0.70
2023-11-30T16:44:29.992Z,0.70
2023-11-30T16:46:32.594Z,0.70
2023-11-30T16:48:35.390Z,0.70
2023-11-30T16:50:37.860Z,1.70
2023-11-30T16:53:00.286Z,0.70
2023-11-30T16:55:02.934Z,0.70
2023-11-30T16:57:33.314Z,0.70
2023-11-30T16:59:36.062Z,0.80
2023-11-30T17:01:39.390Z,0.80
2023-11-30T17:03:42.234Z,0.70
2023-11-30T17:05:44.817Z,0.70
2023-11-30T17:07:47.410Z,0.70
2023-11-30T17:09:49.966Z,0.70
2023-11-30T17:11:52.529Z,0.70
2023-11-30T17:13:57.797Z,0.80
2023-11-30T17:16:01.717Z,0.80
2023-11-30T17:18:05.030Z,0.70
2023-11-30T17:20:08.963Z,0.80
2023-11-30T17:22:12.262Z,0.80
2023-11-30T17:24:14.891Z,0.70
2023-11-30T17:26:17.394Z,0.80
2023-11-30T17:28:20.342Z,0.80
2023-11-30T17:30:25.972Z,0.80
2023-11-30T17:32:29.305Z,0.70
2023-11-30T17:34:31.921Z,0.80
2023-11-30T17:36:34.531Z,0.80
2023-11-30T17:38:37.710Z,0.80
2023-11-30T17:40:40.225Z,0.80
2023-11-30T17:42:42.751Z,0.80
2023-11-30T17:44:45.321Z,0.80
2023-11-30T17:46:51.026Z,0.70
2023-11-30T17:48:53.491Z,1.10
2023-11-30T17:50:56.075Z,0.70
2023-11-30T17:53:18.549Z,0.80
2023-11-30T17:55:21.090Z,0.80
2023-11-30T17:57:23.640Z,0.80
2023-11-30T17:59:46.501Z,0.90
2023-11-30T18:01:54.435Z,0.80
2023-11-30T18:03:56.958Z,2.10
2023-11-30T18:05:59.588Z,0.70
2023-11-30T18:08:02.157Z,0.80
2023-11-30T18:10:05.608Z,0.80
2023-11-30T18:12:08.599Z,0.80
2023-11-30T18:14:12.048Z,0.80
2023-11-30T18:16:14.824Z,0.80
2023-11-30T18:18:20.072Z,0.80
2023-11-30T18:20:22.584Z,0.90
2023-11-30T18:22:25.104Z,1.00
2023-11-30T18:24:31.437Z,0.90
2023-11-30T18:26:34.363Z,0.90
2023-11-30T18:28:37.012Z,0.80
2023-11-30T18:30:39.724Z,0.90
2023-11-30T18:33:03.080Z,0.90
2023-11-30T18:35:08.827Z,0.90
2023-11-30T18:37:11.794Z,0.80
2023-11-30T18:39:15.989Z,0.80
2023-11-30T18:41:18.578Z,0.80
2023-11-30T18:43:21.156Z,0.80
2023-11-30T18:45:23.935Z,0.80
2023-11-30T18:47:29.913Z,0.90
2023-11-30T18:49:55.382Z,0.90
2023-11-30T18:52:00.811Z,1.80
2023-11-30T18:54:03.770Z,0.90
2023-11-30T18:56:28.993Z,0.90
2023-11-30T18:58:31.643Z,0.90
2023-11-30T19:00:34.343Z,0.90
2023-11-30T19:02:37.267Z,0.90
2023-11-30T19:04:40.825Z,0.90
2023-11-30T19:06:43.493Z,0.90
2023-11-30T19:08:50.188Z,0.90
2023-11-30T19:10:52.953Z,0.90
2023-11-30T19:12:56.012Z,0.90
2023-11-30T19:14:58.749Z,0.90
2023-11-30T19:17:01.256Z,0.90
2023-11-30T19:19:03.965Z,0.90
2023-11-30T19:21:07.248Z,0.90
2023-11-30T19:23:10.708Z,0.90
2023-11-30T19:25:15.941Z,1.00
2023-11-30T19:27:18.458Z,1.00
2023-11-30T19:29:21.010Z,0.90
2023-11-30T19:31:23.836Z,0.90
2023-11-30T19:33:27.107Z,0.90
2023-11-30T19:35:34.115Z,0.90
2023-11-30T19:37:36.676Z,0.90
2023-11-30T19:39:41.616Z,0.90
2023-11-30T19:41:46.898Z,0.90
2023-11-30T19:43:49.489Z,0.90
2023-11-30T19:45:52.293Z,0.90
2023-11-30T19:48:15.353Z,1.00
2023-11-30T19:50:17.871Z,1.00
2023-11-30T19:52:20.438Z,1.30
2023-11-30T19:54:23.057Z,1.00
2023-11-30T19:56:25.667Z,1.00
2023-11-30T19:58:30.751Z,1.00
2023-11-30T20:00:33.455Z,1.00
2023-11-30T20:02:36.048Z,0.90
2023-11-30T20:04:38.564Z,0.90
2023-11-30T20:06:41.031Z,0.90
2023-11-30T20:08:43.898Z,0.90
2023-11-30T20:10:47.585Z,0.90
2023-11-30T20:12:52.302Z,0.90
2023-11-30T20:14:57.586Z,0.90
2023-11-30T20:17:00.162Z,0.90
2023-11-30T20:19:02.787Z,0.90
2023-11-30T20:21:05.895Z,0.90
2023-11-30T20:23:08.466Z,0.90
2023-11-30T20:25:11.370Z,0.90
2023-11-30T20:27:13.995Z,0.90
2023-11-30T20:29:16.684Z,0.90
2023-11-30T20:31:21.941Z,0.90
2023-11-30T20:33:24.593Z,0.80
2023-11-30T20:35:28.432Z,0.90
2023-11-30T20:37:30.987Z,0.90
2023-11-30T20:39:35.135Z,0.90
2023-11-30T20:41:37.687Z,0.90
2023-11-30T20:43:40.360Z,0.90
2023-11-30T20:45:43.799Z,0.90
2023-11-30T20:47:49.292Z,0.90
2023-11-30T20:49:52.108Z,0.90
2023-11-30T20:51:54.603Z,0.90
2023-11-30T20:53:57.075Z,0.90
2023-11-30T20:55:59.621Z,0.90
2023-11-30T20:58:02.273Z,0.90
2023-11-30T21:00:07.999Z,0.90
2023-11-30T21:02:11.246Z,0.90
2023-11-30T21:04:16.505Z,0.90
2023-11-30T21:06:19.158Z,0.90
2023-11-30T21:08:21.653Z,0.80
2023-11-30T21:10:24.298Z,0.90
2023-11-30T21:12:46.792Z,0.80
2023-11-30T21:15:10.076Z,0.90
2023-11-30T21:17:12.710Z,0.80
2023-11-30T21:19:18.084Z,0.90
2023-11-30T21:21:20.654Z,0.80
2023-11-30T21:23:23.120Z,0.80
2023-11-30T21:25:25.693Z,0.70
2023-11-30T21:27:28.996Z,0.80
2023-11-30T21:29:31.506Z,0.70
2023-11-30T21:31:34.037Z,0.70
2023-11-30T21:33:36.948Z,0.70
2023-11-30T21:35:42.905Z,0.60
2023-11-30T21:37:45.527Z,0.50
2023-11-30T21:39:50.555Z,0.60
2023-11-30T21:41:53.267Z,0.60
2023-11-30T21:43:55.968Z,0.50
2023-11-30T21:45:58.668Z,0.50
2023-11-30T21:48:03.772Z,1.90
2023-11-30T21:50:16.637Z,0.50
2023-11-30T21:52:21.984Z,0.50
2023-11-30T21:54:24.574Z,0.50
2023-11-30T21:56:27.334Z,0.40
2023-11-30T21:58:30.013Z,0.40
2023-11-30T22:00:32.756Z,0.40
2023-11-30T22:02:35.406Z,0.40
2023-11-30T22:04:38.098Z,0.70
2023-11-30T22:06:40.790Z,0.30
2023-11-30T22:08:50.020Z,0.30
2023-11-30T22:10:54.306Z,0.30
2023-11-30T22:12:56.716Z,0.30
2023-11-30T22:15:02.325Z,1.40
2023-11-30T22:17:05.311Z,0.30
2023-11-30T22:19:08.059Z,0.30
2023-11-30T22:21:10.883Z,0.30
2023-11-30T22:23:14.542Z,0.30
2023-11-30T22:25:19.948Z,0.30
2023-11-30T22:27:22.552Z,1.30
2023-11-30T22:29:26.213Z,0.30
2023-11-30T22:31:34.390Z,0.30
2023-11-30T22:33:37.673Z,0.40
2023-11-30T22:35:41.075Z,0.40
2023-11-30T22:37:43.686Z,0.40
2023-11-30T22:39:46.369Z,0.30
2023-11-30T22:41:51.649Z,0.40
2023-11-30T22:43:54.175Z,0.40
2023-11-30T22:45:56.849Z,0.40
2023-11-30T22:47:59.362Z,0.40
2023-11-30T22:50:01.942Z,0.40
2023-11-30T22:52:04.957Z,0.40
2023-11-30T22:54:07.534Z,0.40
2023-11-30T22:56:18.061Z,0.40
2023-11-30T22:58:23.692Z,0.30
2023-11-30T23:00:29.379Z,0.40
2023-11-30T23:02:32.305Z,0.30
2023-11-30T23:04:35.617Z,0.30
2023-11-30T23:06:38.393Z,0.30
2023-11-30T23:08:41.282Z,0.30
2023-11-30T23:11:04.233Z,0.30
2023-11-30T23:13:07.114Z,0.30
2023-11-30T23:15:12.596Z,0.30
2023-11-30T23:17:15.161Z,0.40
2023-11-30T23:19:17.774Z,0.30
2023-11-30T23:21:20.312Z,0.30
2023-11-30T23:23:23.092Z,0.40
2023-11-30T23:25:25.801Z,0.40
2023-11-30T23:27:28.538Z,0.30
2023-11-30T23:29:34.149Z,0.40
2023-11-30T23:31:39.408Z,0.50
2023-11-30T23:33:42.262Z,0.30
2023-11-30T23:36:06.709Z,0.20
2023-11-30T23:38:09.287Z,0.30
2023-11-30T23:40:13.350Z,0.30
2023-11-30T23:42:15.944Z,0.30
2023-11-30T23:44:18.553Z,0.30
2023-11-30T23:46:21.007Z,0.20
2023-11-30T23:48:26.125Z,0.10
2023-11-30T23:50:28.586Z,0.10
2023-11-30T23:52:31.096Z,0.00
2023-11-30T23:54:33.693Z,-0.10
2023-11-30T23:56:36.238Z,-0.10
2023-11-30T23:58:38.757Z,-0.10
